createdAt,value
2019-02-22T00:02:30.904Z,101511.48
2019-02-22T00:05:01.179Z,101524.38
2019-02-22T00:07:31.529Z,101526.22
2019-02-22T00:10:01.855Z,101531.70
2019-02-22T00:12:33.584Z,101536.59
2019-02-22T00:15:04.204Z,101537.16
2019-02-22T00:17:34.601Z,101543.00
2019-02-22T00:20:06.574Z,101532.80
2019-02-22T00:22:36.822Z,101539.11
2019-02-22T00:25:07.132Z,101544.47
2019-02-22T00:27:37.445Z,101548.48
2019-02-22T00:30:09.530Z,101552.58
2019-02-22T00:32:42.337Z,101547.69
2019-02-22T00:35:11.759Z,101551.28
2019-02-22T00:37:42.195Z,101555.73
2019-02-22T00:40:12.423Z,101552.73
2019-02-22T00:42:42.812Z,101558.11
2019-02-22T00:45:13.053Z,101568.38
2019-02-22T00:47:43.300Z,101571.97
2019-02-22T00:50:13.527Z,101574.69
2019-02-22T00:52:46.319Z,101579.63
2019-02-22T00:55:16.832Z,101588.63
2019-02-22T00:57:47.403Z,101603.14
2019-02-22T01:00:17.823Z,101604.73
2019-02-22T01:02:48.206Z,101614.63
2019-02-22T01:05:18.585Z,101612.20
2019-02-22T01:07:50.024Z,101617.27
2019-02-22T01:10:30.463Z,101634.67
2019-02-22T01:12:52.523Z,101637.06
2019-02-22T01:15:23.302Z,101676.91
2019-02-22T01:17:53.719Z,101672.12
2019-02-22T01:20:23.909Z,101698.37
2019-02-22T01:22:54.311Z,101693.80
2019-02-22T01:25:26.812Z,101715.44
2019-02-22T01:27:58.673Z,101714.98
2019-02-22T01:30:28.949Z,101725.95
2019-02-22T01:32:59.183Z,101743.83
2019-02-22T01:35:29.572Z,101751.75
2019-02-22T01:37:59.815Z,101744.42
2019-02-22T01:40:30.052Z,101735.09
2019-02-22T01:43:00.301Z,101731.33
2019-02-22T01:45:31.528Z,101774.17
2019-02-22T01:48:01.766Z,101803.82
2019-02-22T01:50:32.031Z,101811.45
2019-02-22T01:53:02.262Z,101809.74
2019-02-22T01:55:32.492Z,101800.97
2019-02-22T01:58:02.807Z,101826.53
2019-02-22T02:00:33.065Z,101820.84
2019-02-22T02:03:03.324Z,101808.12
2019-02-22T02:05:33.569Z,101844.14
2019-02-22T02:08:03.819Z,101833.91
2019-02-22T02:11:47.310Z,101847.70
2019-02-22T02:14:17.736Z,101846.80
2019-02-22T02:16:47.989Z,101852.20
2019-02-22T02:19:18.235Z,101856.16
2019-02-22T02:21:48.467Z,101877.28
2019-02-22T02:24:18.711Z,101872.00
2019-02-22T02:26:48.944Z,101889.14
2019-02-22T02:29:19.189Z,101890.92
2019-02-22T02:31:49.438Z,101900.16
2019-02-22T02:34:19.685Z,101893.55
2019-02-22T02:36:49.987Z,101895.73
2019-02-22T02:39:20.194Z,101908.49
2019-02-22T02:41:50.441Z,101921.23
2019-02-22T02:44:20.710Z,101923.45
2019-02-22T02:46:51.155Z,101926.09
2019-02-22T02:49:21.369Z,101920.36
2019-02-22T02:51:51.619Z,101924.77
2019-02-22T02:54:21.871Z,101924.75
2019-02-22T02:56:52.103Z,101943.23
2019-02-22T02:59:22.359Z,101948.48
2019-02-22T03:01:52.609Z,101969.59
2019-02-22T03:04:22.842Z,101984.08
2019-02-22T03:06:57.389Z,101989.78
2019-02-22T03:09:27.641Z,101978.80
2019-02-22T03:11:57.869Z,101985.83
2019-02-22T03:14:28.128Z,101998.98
2019-02-22T03:16:58.361Z,101998.53
2019-02-22T03:19:28.599Z,101998.98
2019-02-22T03:21:58.851Z,102017.45
2019-02-22T03:24:29.088Z,102027.98
2019-02-22T03:26:59.323Z,102036.34
2019-02-22T03:29:29.570Z,102042.47
2019-02-22T03:31:59.802Z,102051.27
2019-02-22T03:34:30.076Z,102057.84
2019-02-22T03:37:00.298Z,102052.55
2019-02-22T03:39:30.537Z,102070.12
2019-02-22T03:42:00.787Z,102074.07
2019-02-22T03:44:31.019Z,102084.58
2019-02-22T03:47:01.269Z,102080.64
2019-02-22T03:49:31.520Z,102101.27
2019-02-22T03:52:03.486Z,102096.81
2019-02-22T03:54:33.731Z,102124.45
2019-02-22T03:57:03.968Z,102132.78
2019-02-22T03:59:34.226Z,102125.30
2019-02-22T04:02:04.440Z,102165.22
2019-02-22T04:04:34.714Z,102156.42
2019-02-22T04:07:04.953Z,102180.55
2019-02-22T04:09:35.215Z,102199.84
2019-02-22T04:12:05.447Z,102190.14
2019-02-22T04:14:35.677Z,102190.15
2019-02-22T04:17:05.926Z,102190.15
2019-02-22T04:19:36.176Z,102226.12
2019-02-22T04:22:06.482Z,102206.77
2019-02-22T04:24:36.736Z,102229.60
2019-02-22T04:27:07.011Z,102245.82
2019-02-22T04:29:37.270Z,102257.65
2019-02-22T04:32:07.527Z,102257.17
2019-02-22T04:34:37.758Z,102263.69
2019-02-22T04:37:08.001Z,102265.81
2019-02-22T04:39:38.306Z,102279.36
2019-02-22T04:42:08.551Z,102287.66
2019-02-22T04:44:38.826Z,102302.11
2019-02-22T04:47:09.079Z,102302.05
2019-02-22T04:49:39.336Z,102278.34
2019-02-22T04:52:09.573Z,102313.83
2019-02-22T04:54:39.829Z,102339.18
2019-02-22T04:57:11.046Z,102332.98
2019-02-22T04:59:41.292Z,102327.63
2019-02-22T05:02:11.526Z,102335.50
2019-02-22T05:04:42.753Z,102356.08
2019-02-22T05:07:12.990Z,102364.35
2019-02-22T05:09:43.226Z,102372.22
2019-02-22T05:12:13.459Z,102373.97
2019-02-22T05:14:43.760Z,102367.77
2019-02-22T05:17:13.974Z,102380.86
2019-02-22T05:19:44.240Z,102385.64
2019-02-22T05:22:15.552Z,102382.00
2019-02-22T05:24:45.788Z,102422.27
2019-02-22T05:27:16.093Z,102415.66
2019-02-22T05:29:46.346Z,102416.50
2019-02-22T05:32:16.585Z,102417.34
2019-02-22T05:34:47.961Z,102435.20
2019-02-22T05:37:18.272Z,102431.22
2019-02-22T05:39:48.529Z,102441.73
2019-02-22T05:42:23.003Z,102453.13
2019-02-22T05:44:50.718Z,102464.48
2019-02-22T05:47:20.953Z,102487.27
2019-02-22T05:49:51.211Z,102487.75
2019-02-22T05:52:21.463Z,102487.67
2019-02-22T05:54:51.747Z,102490.70
2019-02-22T05:57:22.060Z,102527.83
2019-02-22T05:59:52.316Z,102523.80
2019-02-22T06:02:22.581Z,102521.52
2019-02-22T06:04:53.907Z,102530.25
2019-02-22T06:07:24.165Z,102546.50
2019-02-22T06:09:54.413Z,102552.19
2019-02-22T06:12:34.249Z,102553.07
2019-02-22T06:14:56.631Z,102567.88
2019-02-22T06:17:26.912Z,102594.95
2019-02-22T06:19:57.210Z,102566.91
2019-02-22T06:22:29.903Z,102600.02
2019-02-22T06:24:59.659Z,102593.84
2019-02-22T06:27:29.921Z,102609.13
2019-02-22T06:30:00.353Z,102624.41
2019-02-22T06:32:30.592Z,102642.31
2019-02-22T06:35:00.853Z,102625.58
2019-02-22T06:37:31.112Z,102634.72
2019-02-22T06:40:01.360Z,102650.68
2019-02-22T06:42:31.610Z,102639.44
2019-02-22T06:45:01.865Z,102648.34
2019-02-22T06:47:32.106Z,102648.38
2019-02-22T06:50:02.351Z,102664.54
2019-02-22T06:52:32.655Z,102685.03
2019-02-22T06:55:02.919Z,102690.48
2019-02-22T06:57:33.183Z,102695.30
2019-02-22T07:00:06.114Z,102725.52
2019-02-22T07:02:36.463Z,102728.28
2019-02-22T07:05:08.020Z,102716.78
2019-02-22T07:07:39.362Z,102737.80
2019-02-22T07:10:10.672Z,102747.38
2019-02-22T07:12:42.553Z,102733.16
2019-02-22T07:15:12.812Z,102753.34
2019-02-22T07:17:43.067Z,102785.25
2019-02-22T07:20:14.855Z,102767.25
2019-02-22T07:22:45.117Z,102781.23
2019-02-22T07:25:15.359Z,102785.45
2019-02-22T07:27:46.639Z,102781.92
2019-02-22T07:30:16.960Z,102800.69
2019-02-22T07:32:47.231Z,102814.81
2019-02-22T07:35:17.438Z,102833.52
2019-02-22T07:37:47.706Z,102844.20
2019-02-22T07:40:20.001Z,102820.88
2019-02-22T07:42:49.882Z,102843.27
2019-02-22T07:45:20.157Z,102856.26
2019-02-22T07:47:50.379Z,102883.68
2019-02-22T07:50:20.624Z,102865.26
2019-02-22T07:52:51.025Z,102892.69
2019-02-22T07:55:21.263Z,102899.95
2019-02-22T07:57:51.671Z,102903.63
2019-02-22T08:00:21.918Z,102904.91
2019-02-22T08:02:52.157Z,102916.72
2019-02-22T08:05:22.404Z,102952.72
2019-02-22T08:07:52.661Z,102951.90
2019-02-22T08:10:22.931Z,102948.08
2019-02-22T08:12:53.218Z,102935.30
2019-02-22T08:15:23.586Z,102956.65
2019-02-22T08:17:53.923Z,102967.70
2019-02-22T08:20:25.513Z,102965.15
2019-02-22T08:22:55.830Z,102964.22
2019-02-22T08:25:27.260Z,102974.67
2019-02-22T08:27:57.521Z,102984.62
2019-02-22T08:30:27.861Z,103014.06
2019-02-22T08:32:58.124Z,103008.48
2019-02-22T08:35:28.385Z,103002.92
2019-02-22T08:37:58.626Z,103021.91
2019-02-22T08:41:02.454Z,103016.13
2019-02-22T08:43:32.766Z,103006.00
2019-02-22T08:46:03.163Z,103021.19
2019-02-22T08:48:33.417Z,103043.64
2019-02-22T08:51:03.685Z,103026.66
2019-02-22T08:53:33.967Z,103042.23
2019-02-22T08:56:04.243Z,103036.52
2019-02-22T08:58:34.522Z,103054.00
2019-02-22T09:01:06.359Z,103051.41
2019-02-22T09:03:36.887Z,103061.60
2019-02-22T09:06:07.137Z,103063.94
2019-02-22T09:08:37.387Z,103079.31
2019-02-22T09:11:07.730Z,103084.16
2019-02-22T09:13:43.566Z,103088.24
2019-02-22T09:16:09.982Z,103076.53
2019-02-22T09:18:43.000Z,103072.04
2019-02-22T09:21:13.265Z,103083.48
2019-02-22T09:23:43.603Z,103087.92
2019-02-22T09:26:16.475Z,103078.89
2019-02-22T09:28:46.716Z,103105.57
2019-02-22T09:31:17.401Z,103113.75
2019-02-22T09:33:47.610Z,103110.23
2019-02-22T09:36:18.950Z,103121.28
2019-02-22T09:38:49.210Z,103120.64
2019-02-22T09:41:19.484Z,103129.47
2019-02-22T09:43:54.984Z,103141.23
2019-02-22T09:46:21.957Z,103118.83
2019-02-22T09:48:52.194Z,103133.36
2019-02-22T09:51:22.466Z,103145.68
2019-02-22T09:53:52.713Z,103148.66
2019-02-22T09:56:22.963Z,103162.92
2019-02-22T09:58:53.223Z,103146.17
2019-02-22T10:01:23.481Z,103161.56
2019-02-22T10:03:53.753Z,103156.78
2019-02-22T10:06:24.008Z,103170.84
2019-02-22T10:08:54.260Z,103161.74
2019-02-22T10:11:24.532Z,103188.41
2019-02-22T10:14:06.025Z,103179.45
2019-02-22T10:16:27.633Z,103197.77
2019-02-22T10:18:57.977Z,103206.02
2019-02-22T10:21:28.261Z,103198.88
2019-02-22T10:23:58.492Z,103205.03
2019-02-22T10:26:29.269Z,103206.23
2019-02-22T10:28:59.571Z,103209.61
2019-02-22T10:31:30.108Z,103231.33
2019-02-22T10:34:00.363Z,103219.53
2019-02-22T10:36:30.613Z,103221.96
2019-02-22T10:39:00.914Z,103227.62
2019-02-22T10:41:32.800Z,103232.97
2019-02-22T10:44:03.128Z,103222.84
2019-02-22T10:46:33.414Z,103232.91
2019-02-22T10:49:06.885Z,103223.13
2019-02-22T10:51:37.176Z,103243.25
2019-02-22T10:54:07.464Z,103223.25
2019-02-22T10:56:39.308Z,103223.28
2019-02-22T10:59:10.838Z,103254.64
2019-02-22T11:01:41.157Z,103241.78
2019-02-22T11:04:11.373Z,103242.69
2019-02-22T11:06:41.660Z,103281.58
2019-02-22T11:09:12.000Z,103257.75
2019-02-22T11:11:42.332Z,103260.45
2019-02-22T11:14:14.210Z,103268.88
2019-02-22T11:16:46.359Z,103278.41
2019-02-22T11:19:16.612Z,103277.73
2019-02-22T11:21:48.401Z,103272.88
2019-02-22T11:24:20.052Z,103272.20
2019-02-22T11:26:50.512Z,103279.42
2019-02-22T11:29:20.784Z,103287.95
2019-02-22T11:31:51.059Z,103290.15
2019-02-22T11:34:21.308Z,103300.87
2019-02-22T11:36:51.788Z,103300.60
2019-02-22T11:39:22.145Z,103311.20
2019-02-22T11:41:52.412Z,103298.83
2019-02-22T11:44:22.734Z,103310.13
2019-02-22T11:46:53.008Z,103314.53
2019-02-22T11:49:23.258Z,103311.06
2019-02-22T11:51:55.920Z,103321.53
2019-02-22T11:54:26.787Z,103319.50
2019-02-22T11:56:58.743Z,103327.62
2019-02-22T11:59:28.994Z,103317.13
2019-02-22T12:01:59.911Z,103328.81
2019-02-22T12:04:30.806Z,103320.84
2019-02-22T12:07:01.700Z,103323.20
2019-02-22T12:09:34.095Z,103308.37
2019-02-22T12:12:04.339Z,103321.20
2019-02-22T12:14:39.270Z,103333.72
2019-02-22T12:17:09.732Z,103319.31
2019-02-22T12:19:40.008Z,103334.61
2019-02-22T12:22:10.279Z,103334.03
2019-02-22T12:24:40.526Z,103330.22
2019-02-22T12:27:10.810Z,103351.67
2019-02-22T12:29:41.063Z,103329.84
2019-02-22T12:32:11.424Z,103327.20
2019-02-22T12:34:41.672Z,103348.47
2019-02-22T12:37:12.006Z,103333.23
2019-02-22T12:39:42.719Z,103348.85
2019-02-22T12:42:13.193Z,103358.39
2019-02-22T12:44:43.505Z,103347.61
2019-02-22T12:47:13.798Z,103351.99
2019-02-22T12:49:46.406Z,103352.36
2019-02-22T12:52:16.531Z,103356.51
2019-02-22T12:54:46.792Z,103363.39
2019-02-22T12:57:17.066Z,103358.69
2019-02-22T12:59:47.301Z,103367.73
2019-02-22T13:02:17.562Z,103369.11
2019-02-22T13:04:48.056Z,103377.49
2019-02-22T13:07:18.443Z,103370.34
2019-02-22T13:09:49.485Z,103385.64
2019-02-22T13:12:19.805Z,103368.89
2019-02-22T13:14:50.033Z,103384.50
2019-02-22T13:17:30.533Z,103409.55
2019-02-22T13:19:52.243Z,103398.91
2019-02-22T13:22:22.531Z,103401.64
2019-02-22T13:24:53.747Z,103396.81
2019-02-22T13:27:24.008Z,103401.78
2019-02-22T13:29:54.273Z,103398.02
2019-02-22T13:32:24.546Z,103397.75
2019-02-22T13:34:54.782Z,103410.62
2019-02-22T13:37:25.563Z,103395.55
2019-02-22T13:39:57.516Z,103409.81
2019-02-22T13:42:27.790Z,103396.37
2019-02-22T13:44:58.059Z,103414.00
2019-02-22T13:47:28.333Z,103410.58
2019-02-22T13:49:59.074Z,103407.84
2019-02-22T13:52:29.316Z,103415.00
2019-02-22T13:54:59.866Z,103408.41
2019-02-22T13:57:30.522Z,103421.96
2019-02-22T14:00:01.031Z,103436.80
2019-02-22T14:02:34.012Z,103425.77
2019-02-22T14:05:06.016Z,103417.44
2019-02-22T14:07:37.323Z,103415.48
2019-02-22T14:10:08.435Z,103431.17
2019-02-22T14:12:39.071Z,103410.54
2019-02-22T14:15:09.431Z,103406.64
2019-02-22T14:17:45.543Z,103426.15
2019-02-22T14:20:14.785Z,103432.89
2019-02-22T14:22:58.895Z,103437.21
2019-02-22T14:25:35.756Z,103434.58
2019-02-22T14:28:12.223Z,103435.36
2019-02-22T14:30:51.960Z,103454.75
2019-02-22T14:33:45.139Z,103438.02
2019-02-22T14:36:19.527Z,103461.13
2019-02-22T14:38:59.045Z,103455.92
2019-02-22T14:41:29.309Z,103460.09
2019-02-22T14:44:00.827Z,103461.70
2019-02-22T14:46:47.158Z,103465.81
2019-02-22T14:49:22.771Z,103466.56
2019-02-22T14:51:53.436Z,103472.58
2019-02-22T14:54:24.506Z,103475.25
2019-02-22T14:56:56.723Z,103467.91
2019-02-22T14:59:27.553Z,103478.84
2019-02-22T15:01:57.846Z,103469.48
2019-02-22T15:04:28.253Z,103480.73
2019-02-22T15:06:58.567Z,103485.48
2019-02-22T15:09:28.845Z,103483.89
2019-02-22T15:11:59.970Z,103499.15
2019-02-22T15:14:30.224Z,103486.42
2019-02-22T15:17:17.306Z,103492.70
2019-02-22T15:19:49.630Z,103497.80
2019-02-22T15:22:20.196Z,103498.17
2019-02-22T15:24:53.355Z,103495.25
2019-02-22T15:27:22.752Z,103506.56
2019-02-22T15:29:53.228Z,103511.70
2019-02-22T15:32:23.479Z,103513.73
2019-02-22T15:34:55.295Z,103538.19
2019-02-22T15:37:25.733Z,103523.11
2019-02-22T15:39:56.030Z,103535.17
2019-02-22T15:42:26.258Z,103544.20
2019-02-22T15:44:56.527Z,103540.03
2019-02-22T15:47:26.958Z,103536.34
2019-02-22T15:49:57.187Z,103546.86
2019-02-22T15:52:30.091Z,103547.58
2019-02-22T15:55:01.437Z,103545.92
2019-02-22T15:57:32.763Z,103561.55
2019-02-22T16:00:03.482Z,103558.67
2019-02-22T16:02:35.842Z,103549.66
2019-02-22T16:05:11.132Z,103556.16
2019-02-22T16:07:44.974Z,103562.80
2019-02-22T16:10:14.321Z,103565.00
2019-02-22T16:12:45.622Z,103559.40
2019-02-22T16:15:16.623Z,103565.11
2019-02-22T16:17:46.915Z,103570.53
2019-02-22T16:20:17.165Z,103577.20
2019-02-22T16:22:47.476Z,103580.78
2019-02-22T16:25:19.842Z,103587.41
2019-02-22T16:27:50.952Z,103586.91
2019-02-22T16:30:23.026Z,103587.42
2019-02-22T16:32:53.407Z,103593.56
2019-02-22T16:35:23.644Z,103594.22
2019-02-22T16:37:53.903Z,103605.34
2019-02-22T16:40:24.308Z,103611.17
2019-02-22T16:42:56.519Z,103611.80
2019-02-22T16:45:26.759Z,103613.26
2019-02-22T16:47:57.002Z,103624.41
2019-02-22T16:50:27.399Z,103623.09
2019-02-22T16:52:57.864Z,103627.94
2019-02-22T16:55:29.085Z,103628.75
2019-02-22T16:57:59.646Z,103618.14
2019-02-22T17:00:29.921Z,103622.76
2019-02-22T17:03:01.196Z,103620.45
2019-02-22T17:05:32.367Z,103618.26
2019-02-22T17:08:03.377Z,103622.39
2019-02-22T17:10:33.935Z,103629.52
2019-02-22T17:13:11.724Z,103628.19
2019-02-22T17:15:45.038Z,103636.48
2019-02-22T17:18:15.556Z,103641.28
2019-02-22T17:23:57.892Z,103654.81
2019-02-22T17:26:30.436Z,103655.96
2019-02-22T17:29:00.951Z,103662.89
2019-02-22T17:31:32.875Z,103662.67
2019-02-22T17:34:03.488Z,103670.53
2019-02-22T17:36:35.975Z,103666.10
2019-02-22T17:39:07.807Z,103674.30
2019-02-22T17:41:39.006Z,103675.78
2019-02-22T17:44:09.456Z,103679.20
2019-02-22T17:46:39.847Z,103684.73
2019-02-22T17:49:11.736Z,103689.84
2019-02-22T17:51:41.991Z,103695.91
2019-02-22T17:54:13.942Z,103696.89
2019-02-22T17:56:44.498Z,103705.73
2019-02-22T17:59:15.116Z,103707.62
2019-02-22T18:01:45.800Z,103717.11
2019-02-22T18:04:21.202Z,103716.13
2019-02-22T18:06:52.681Z,103718.28
2019-02-22T18:09:23.110Z,103718.11
2019-02-22T18:11:53.375Z,103715.04
2019-02-22T18:14:25.451Z,103724.05
2019-02-22T18:17:07.758Z,103728.88
2019-02-22T18:19:31.901Z,103726.50
2019-02-22T18:22:02.586Z,103729.55
2019-02-22T18:24:34.603Z,103735.52
2019-02-22T18:31:24.074Z,103730.61
2019-02-22T18:33:54.531Z,103738.92
2019-02-22T18:36:24.911Z,103738.36
2019-02-22T18:38:55.504Z,103737.16
2019-02-22T18:41:26.243Z,103742.72
2019-02-22T18:43:57.442Z,103748.09
2019-02-22T18:46:27.991Z,103758.52
2019-02-22T18:49:01.104Z,103764.88
2019-02-22T18:51:32.091Z,103760.48
2019-02-22T18:54:02.967Z,103779.27
2019-02-22T18:56:35.090Z,103776.50
2019-02-22T18:59:05.667Z,103789.02
2019-02-22T19:01:37.686Z,103785.80
2019-02-22T19:04:09.042Z,103792.28
2019-02-22T19:06:39.848Z,103803.40
2019-02-22T19:09:10.555Z,103800.87
2019-02-22T19:11:41.021Z,103812.45
2019-02-22T19:14:12.269Z,103809.59
2019-02-22T19:16:45.420Z,103815.91
2019-02-22T19:19:18.694Z,103813.10
2019-02-22T19:21:48.981Z,103816.04
2019-02-22T19:24:19.418Z,103825.92
2019-02-22T19:26:53.125Z,103824.88
2019-02-22T19:29:49.064Z,103828.62
2019-02-22T19:32:19.398Z,103837.27
2019-02-22T19:34:49.959Z,103836.70
2019-02-22T19:37:20.727Z,103843.97
2019-02-22T19:39:52.035Z,103843.89
2019-02-22T19:42:22.331Z,103843.81
2019-02-22T19:44:57.632Z,103847.04
2019-02-22T19:47:28.616Z,103847.74
2019-02-22T19:50:10.197Z,103852.42
2019-02-22T19:56:07.280Z,103850.43
2019-02-22T19:58:48.418Z,103851.84
2019-02-22T20:06:04.312Z,103855.80
2019-02-22T20:09:11.818Z,103864.38
2019-02-22T20:11:44.514Z,103864.53
2019-02-22T20:14:16.193Z,103868.50
2019-02-22T20:16:53.532Z,103870.56
2019-02-22T20:19:24.415Z,103866.70
2019-02-22T20:26:35.896Z,103876.40
2019-02-22T20:29:11.535Z,103882.78
2019-02-22T20:31:42.163Z,103891.55
2019-02-22T20:34:56.657Z,103890.14
2019-02-22T20:38:10.854Z,103891.13
2019-02-22T20:44:59.632Z,103902.55
2019-02-22T20:47:30.369Z,103905.47
2019-02-22T20:50:00.714Z,103903.95
2019-02-22T20:52:31.221Z,103910.09
2019-02-22T20:55:01.534Z,103913.91
2019-02-22T20:57:34.903Z,103905.14
2019-02-22T21:00:17.153Z,103913.70
2019-02-22T21:02:47.522Z,103918.85
2019-02-22T21:05:17.874Z,103914.94
2019-02-22T21:07:49.939Z,103916.41
2019-02-22T21:10:34.156Z,103916.72
2019-02-22T21:13:29.713Z,103922.09
2019-02-22T21:16:00.069Z,103924.87
2019-02-22T21:18:32.106Z,103917.77
2019-02-22T21:21:02.380Z,103918.96
2019-02-22T21:23:46.426Z,103922.03
2019-02-22T21:37:56.807Z,103928.17
2019-02-22T21:40:28.325Z,103936.08
2019-02-22T21:42:59.187Z,103939.19
2019-02-22T21:49:24.070Z,103937.28
2019-02-22T21:51:54.173Z,103938.17
2019-02-22T21:54:25.395Z,103947.83
2019-02-22T21:56:55.602Z,103944.23
2019-02-22T21:59:32.152Z,103949.07
2019-02-22T22:06:21.603Z,103955.67
2019-02-22T22:08:52.138Z,103954.20
2019-02-22T22:11:23.203Z,103962.73
2019-02-22T22:13:53.579Z,103955.52
2019-02-22T22:16:24.691Z,103959.42
2019-02-22T22:18:55.125Z,103967.72
2019-02-22T22:21:27.010Z,103968.32
2019-02-22T22:23:57.296Z,103967.30
2019-02-22T22:26:27.580Z,103965.70
2019-02-22T22:29:01.199Z,103967.72
2019-02-22T22:31:32.900Z,103968.73
2019-02-22T22:34:03.120Z,103975.67
2019-02-22T22:36:33.383Z,103971.65
2019-02-22T22:39:42.381Z,103977.98
2019-02-22T22:42:12.679Z,103982.67
2019-02-22T22:44:42.954Z,103985.09
2019-02-22T22:47:13.252Z,103991.09
2019-02-22T22:49:43.541Z,103990.19
2019-02-22T22:52:14.424Z,103997.11
2019-02-22T22:54:44.728Z,103991.41
2019-02-22T22:57:14.976Z,103992.72
2019-02-22T22:59:45.319Z,103994.32
2019-02-22T23:02:15.654Z,103995.70
2019-02-22T23:04:45.920Z,103992.10
2019-02-22T23:07:16.185Z,103999.33
2019-02-22T23:09:46.458Z,104003.13
2019-02-22T23:12:16.821Z,104004.54
2019-02-22T23:14:48.089Z,104011.42
2019-02-22T23:17:18.532Z,104014.66
2019-02-22T23:19:48.884Z,104020.66
2019-02-22T23:22:19.229Z,104019.47
2019-02-22T23:24:50.834Z,104024.09
2019-02-22T23:27:21.262Z,104034.22
2019-02-22T23:29:51.751Z,104029.41
2019-02-22T23:33:05.785Z,104027.88
2019-02-22T23:35:36.277Z,104028.48
2019-02-22T23:38:06.632Z,104026.56
2019-02-22T23:40:36.928Z,104033.09
2019-02-22T23:43:07.224Z,104032.25
2019-02-22T23:45:37.621Z,104034.67
2019-02-22T23:48:07.950Z,104042.28
2019-02-22T23:50:38.217Z,104045.39
2019-02-22T23:53:08.789Z,104039.34
2019-02-22T23:55:56.760Z,104042.12
2019-02-22T23:58:27.022Z,104056.55
